createdAt,value
2018-03-03T00:00:55.493Z,18.80
2018-03-03T00:03:26.917Z,18.80
2018-03-03T00:05:55.389Z,18.80
2018-03-03T00:08:25.200Z,18.80
2018-03-03T00:10:54.602Z,18.80
2018-03-03T00:13:24.974Z,18.80
2018-03-03T00:15:53.940Z,18.80
2018-03-03T00:18:23.177Z,18.70
2018-03-03T00:20:51.620Z,18.70
2018-03-03T00:23:19.532Z,18.70
2018-03-03T00:25:48.486Z,18.80
2018-03-03T00:28:16.433Z,18.80
2018-03-03T00:30:49.029Z,18.80
2018-03-03T00:33:20.577Z,18.80
2018-03-03T00:35:49.959Z,18.80
2018-03-03T00:38:19.647Z,18.70
2018-03-03T00:40:49.704Z,18.70
2018-03-03T00:43:19.155Z,18.70
2018-03-03T00:45:49.527Z,18.60
2018-03-03T00:48:18.316Z,18.60
2018-03-03T00:50:47.436Z,18.70
2018-03-03T00:53:15.039Z,18.70
2018-03-03T00:55:46.715Z,18.70
2018-03-03T00:58:16.571Z,18.70
2018-03-03T01:00:44.614Z,18.70
2018-03-03T01:03:16.248Z,18.80
2018-03-03T01:05:46.104Z,18.80
2018-03-03T01:08:15.299Z,18.70
2018-03-03T01:10:46.077Z,18.80
2018-03-03T01:13:14.894Z,18.80
2018-03-03T01:15:45.959Z,18.80
2018-03-03T01:18:14.795Z,18.70
2018-03-03T01:20:42.781Z,18.70
2018-03-03T01:23:11.715Z,18.70
2018-03-03T01:25:41.137Z,18.70
2018-03-03T01:28:09.905Z,18.80
2018-03-03T01:30:46.436Z,18.80
2018-03-03T01:33:15.371Z,18.80
2018-03-03T01:35:43.218Z,18.70
2018-03-03T01:38:11.063Z,18.60
2018-03-03T01:40:43.662Z,18.60
2018-03-03T01:43:11.600Z,18.60
2018-03-03T01:45:40.222Z,18.60
2018-03-03T01:48:09.777Z,18.60
2018-03-03T01:50:46.576Z,18.60
2018-03-03T01:53:15.399Z,18.70
2018-03-03T01:55:43.470Z,18.70
2018-03-03T01:58:11.861Z,18.70
2018-03-03T02:00:41.382Z,18.70
2018-03-03T02:03:10.910Z,18.70
2018-03-03T02:05:39.044Z,18.60
2018-03-03T02:08:11.715Z,18.60
2018-03-03T02:10:44.202Z,18.70
2018-03-03T02:13:11.815Z,18.70
2018-03-03T02:15:39.955Z,18.80
2018-03-03T02:18:07.918Z,18.70
2018-03-03T02:20:40.081Z,18.60
2018-03-03T02:23:09.615Z,18.70
2018-03-03T02:25:37.974Z,18.60
2018-03-03T02:28:10.252Z,18.70
2018-03-03T02:30:38.516Z,18.80
2018-03-03T02:33:08.851Z,18.80
2018-03-03T02:35:37.374Z,18.80
2018-03-03T02:38:04.979Z,18.80
2018-03-03T02:40:35.085Z,18.80
2018-03-03T02:43:04.146Z,18.80
2018-03-03T02:45:31.751Z,18.80
2018-03-03T02:47:59.634Z,18.90
2018-03-03T02:50:33.626Z,18.80
2018-03-03T02:53:01.680Z,18.80
2018-03-03T02:55:30.345Z,18.90
2018-03-03T02:57:58.685Z,18.80
2018-03-03T03:00:27.531Z,18.80
2018-03-03T03:02:55.337Z,18.80
2018-03-03T03:05:25.058Z,18.90
2018-03-03T03:07:53.835Z,18.90
2018-03-03T03:10:24.258Z,18.80
2018-03-03T03:15:42.215Z,18.70
2018-03-03T03:18:11.384Z,18.70
2018-03-03T03:20:39.388Z,18.60
2018-03-03T03:23:07.253Z,18.70
2018-03-03T03:25:34.859Z,18.70
2018-03-03T03:28:09.916Z,18.70
2018-03-03T03:30:41.059Z,18.60
2018-03-03T03:33:08.934Z,18.70
2018-03-03T03:35:39.039Z,18.70
2018-03-03T03:38:07.727Z,18.70
2018-03-03T03:40:37.502Z,18.80
2018-03-03T03:43:06.031Z,18.90
2018-03-03T03:45:35.600Z,19.00
2018-03-03T03:48:04.736Z,19.10
2018-03-03T03:50:32.341Z,19.20
2018-03-03T03:53:02.094Z,19.20
2018-03-03T03:55:30.712Z,19.20
2018-03-03T03:58:00.206Z,19.30
2018-03-03T04:00:28.048Z,19.30
2018-03-03T04:02:56.591Z,19.30
2018-03-03T04:05:25.420Z,19.40
2018-03-03T04:07:53.273Z,19.40
2018-03-03T04:10:21.255Z,19.30
2018-03-03T04:12:50.602Z,19.40
2018-03-03T04:15:21.954Z,19.40
2018-03-03T04:17:50.198Z,19.50
2018-03-03T04:20:17.339Z,19.50
2018-03-03T04:22:48.653Z,19.50
2018-03-03T04:25:15.860Z,19.50
2018-03-03T04:27:45.038Z,19.50
2018-03-03T04:30:12.222Z,19.60
2018-03-03T04:32:39.417Z,19.60
2018-03-03T04:35:07.110Z,19.60
2018-03-03T04:37:35.886Z,19.60
2018-03-03T04:40:03.844Z,19.60
2018-03-03T04:45:04.216Z,19.60
2018-03-03T04:47:35.719Z,19.60
2018-03-03T04:50:05.262Z,19.70
2018-03-03T04:52:36.269Z,19.60
2018-03-03T04:55:03.825Z,19.70
2018-03-03T04:57:39.638Z,19.70
2018-03-03T05:00:13.243Z,19.60
2018-03-03T05:02:56.175Z,19.70
2018-03-03T05:05:28.859Z,19.70
2018-03-03T05:08:10.904Z,19.80
2018-03-03T05:10:49.930Z,19.80
2018-03-03T05:13:35.638Z,19.80
2018-03-03T05:16:09.558Z,19.80
2018-03-03T05:18:42.306Z,19.80
2018-03-03T05:21:16.335Z,19.70
2018-03-03T05:23:49.839Z,19.80
2018-03-03T05:26:23.068Z,19.80
2018-03-03T05:28:58.248Z,19.80
2018-03-03T05:31:33.415Z,19.80
2018-03-03T05:34:17.626Z,19.80
2018-03-03T05:39:51.815Z,19.80
2018-03-03T05:42:24.692Z,19.80
2018-03-03T05:45:07.719Z,19.90
2018-03-03T05:47:41.692Z,19.90
2018-03-03T05:50:31.636Z,20.00
2018-03-03T05:53:04.902Z,20.00
2018-03-03T05:55:50.754Z,19.90
2018-03-03T05:58:35.014Z,20.00
2018-03-03T06:01:02.995Z,20.00
2018-03-03T06:03:49.947Z,20.00
2018-03-03T06:06:37.857Z,20.10
2018-03-03T06:09:22.158Z,20.00
2018-03-03T06:11:49.807Z,20.00
2018-03-03T06:14:17.463Z,20.00
2018-03-03T06:16:45.160Z,20.10
2018-03-03T06:19:12.336Z,20.10
2018-03-03T06:21:40.016Z,20.10
2018-03-03T06:24:07.665Z,20.10
2018-03-03T06:26:35.297Z,20.00
2018-03-03T06:29:02.890Z,20.10
2018-03-03T06:31:30.498Z,20.10
2018-03-03T06:33:58.767Z,20.10
2018-03-03T06:36:27.380Z,20.20
2018-03-03T06:38:54.530Z,20.10
2018-03-03T06:41:21.685Z,20.10
2018-03-03T06:43:48.835Z,20.20
2018-03-03T06:46:16.014Z,20.30
2018-03-03T06:48:43.191Z,20.30
2018-03-03T06:51:10.414Z,20.30
2018-03-03T06:53:37.561Z,20.30
2018-03-03T06:56:04.740Z,20.30
2018-03-03T06:58:32.340Z,20.30
2018-03-03T07:00:59.942Z,20.30
2018-03-03T07:03:27.112Z,20.30
2018-03-03T07:05:54.270Z,20.30
2018-03-03T07:08:21.468Z,20.40
2018-03-03T07:10:49.087Z,20.30
2018-03-03T07:13:16.317Z,20.30
2018-03-03T07:15:43.517Z,20.40
2018-03-03T07:18:10.678Z,20.40
2018-03-03T07:20:37.845Z,20.40
2018-03-03T07:23:05.094Z,20.30
2018-03-03T07:25:32.296Z,20.40
2018-03-03T07:27:59.452Z,20.30
2018-03-03T07:30:26.626Z,20.30
2018-03-03T07:32:54.562Z,20.40
2018-03-03T07:35:21.710Z,20.40
2018-03-03T07:37:48.849Z,20.50
2018-03-03T07:40:16.026Z,20.40
2018-03-03T07:42:43.177Z,20.50
2018-03-03T07:45:10.333Z,20.40
2018-03-03T07:47:37.953Z,20.50
2018-03-03T07:50:05.129Z,20.50
2018-03-03T07:52:32.276Z,20.50
2018-03-03T07:54:59.429Z,20.40
2018-03-03T07:57:26.606Z,20.50
2018-03-03T07:59:54.202Z,20.50
2018-03-03T08:02:21.808Z,20.60
2018-03-03T08:04:49.467Z,20.60
2018-03-03T08:07:17.133Z,20.60
2018-03-03T08:09:44.818Z,20.60
2018-03-03T08:12:12.408Z,20.60
2018-03-03T08:14:40.046Z,20.60
2018-03-03T08:17:08.420Z,20.60
2018-03-03T08:19:35.592Z,20.60
2018-03-03T08:22:02.744Z,20.70
2018-03-03T08:24:29.904Z,20.60
2018-03-03T08:26:57.065Z,20.60
2018-03-03T08:29:24.222Z,20.70
2018-03-03T08:31:51.418Z,20.70
2018-03-03T08:34:19.028Z,20.70
2018-03-03T08:36:48.219Z,20.70
2018-03-03T08:39:16.740Z,20.70
2018-03-03T08:41:46.284Z,20.80
2018-03-03T08:44:18.680Z,20.90
2018-03-03T08:46:46.985Z,20.90
2018-03-03T08:49:17.942Z,20.90
2018-03-03T08:51:46.507Z,20.90
2018-03-03T08:54:15.828Z,20.90
2018-03-03T08:56:43.518Z,20.90
2018-03-03T08:59:10.687Z,20.90
2018-03-03T09:01:39.457Z,20.90
2018-03-03T09:04:06.599Z,20.90
2018-03-03T09:06:34.415Z,21.00
2018-03-03T09:09:03.551Z,20.80
2018-03-03T09:11:31.616Z,20.80
2018-03-03T09:13:59.391Z,20.90
2018-03-03T09:16:26.910Z,20.90
2018-03-03T09:18:54.640Z,20.70
2018-03-03T09:21:22.921Z,19.70
2018-03-03T09:23:50.653Z,18.80
2018-03-03T09:26:18.845Z,17.80
2018-03-03T09:28:47.542Z,18.00
2018-03-03T09:31:18.984Z,18.00
2018-03-03T09:33:47.487Z,18.10
2018-03-03T09:36:15.421Z,18.10
2018-03-03T09:38:46.384Z,18.10
2018-03-03T09:41:14.757Z,18.40
2018-03-03T09:43:43.063Z,17.40
2018-03-03T09:46:12.600Z,17.90
2018-03-03T09:48:40.635Z,17.60
2018-03-03T09:51:10.094Z,17.30
2018-03-03T09:53:42.614Z,17.30
2018-03-03T09:56:10.578Z,16.70
2018-03-03T09:58:38.733Z,16.50
2018-03-03T10:01:08.603Z,16.00
2018-03-03T10:03:39.257Z,17.30
2018-03-03T10:06:08.547Z,17.30
2018-03-03T10:08:36.778Z,17.60
2018-03-03T10:11:04.722Z,18.00
2018-03-03T10:13:34.245Z,17.70
2018-03-03T10:16:06.497Z,17.50
2018-03-03T10:18:35.452Z,17.60
2018-03-03T10:21:06.552Z,16.80
2018-03-03T10:23:34.867Z,16.70
2018-03-03T10:26:04.377Z,17.40
2018-03-03T10:28:34.189Z,17.70
2018-03-03T10:31:07.480Z,17.70
2018-03-03T10:33:36.888Z,17.70
2018-03-03T10:36:05.230Z,17.70
2018-03-03T10:38:35.030Z,17.70
2018-03-03T10:41:03.376Z,17.50
2018-03-03T10:43:39.186Z,17.40
2018-03-03T10:46:10.334Z,17.40
2018-03-03T10:48:39.753Z,17.30
2018-03-03T10:51:09.293Z,17.00
2018-03-03T10:53:38.912Z,16.00
2018-03-03T10:56:15.226Z,15.00
2018-03-03T10:58:44.357Z,15.40
2018-03-03T11:01:14.357Z,16.20
2018-03-03T11:03:43.788Z,16.80
2018-03-03T11:06:11.953Z,17.20
2018-03-03T11:08:40.545Z,17.40
2018-03-03T11:11:12.103Z,17.40
2018-03-03T11:13:40.482Z,17.50
2018-03-03T11:16:09.976Z,17.60
2018-03-03T11:18:38.066Z,17.60
2018-03-03T11:21:07.732Z,17.70
2018-03-03T11:23:35.788Z,17.70
2018-03-03T11:26:12.907Z,17.90
2018-03-03T11:28:41.152Z,17.90
2018-03-03T11:31:14.348Z,17.80
2018-03-03T11:33:41.938Z,17.90
2018-03-03T11:36:14.747Z,17.90
2018-03-03T11:38:44.293Z,17.80
2018-03-03T11:41:13.986Z,17.70
2018-03-03T11:43:42.531Z,17.70
2018-03-03T11:46:15.441Z,17.70
2018-03-03T11:48:45.851Z,17.80
2018-03-03T11:51:20.371Z,17.70
2018-03-03T11:53:51.299Z,17.70
2018-03-03T11:56:18.452Z,17.70
2018-03-03T11:58:46.575Z,17.70
2018-03-03T12:01:18.362Z,17.80
2018-03-03T12:03:45.832Z,17.90
2018-03-03T12:06:14.000Z,18.00
2018-03-03T12:08:43.155Z,17.90
2018-03-03T12:11:11.564Z,17.80
2018-03-03T12:13:39.391Z,17.70
2018-03-03T12:16:08.624Z,17.70
2018-03-03T12:19:50.477Z,17.70
2018-03-03T12:22:18.996Z,17.80
2018-03-03T12:24:50.914Z,17.80
2018-03-03T12:27:20.332Z,17.90
2018-03-03T12:29:51.193Z,17.90
2018-03-03T12:32:24.013Z,17.90
2018-03-03T12:34:53.307Z,17.80
2018-03-03T12:37:23.056Z,17.90
2018-03-03T12:39:51.178Z,17.90
2018-03-03T12:42:21.623Z,18.10
2018-03-03T12:44:52.041Z,18.00
2018-03-03T12:47:22.802Z,18.10
2018-03-03T12:49:51.616Z,18.10
2018-03-03T12:52:20.465Z,18.00
2018-03-03T12:54:49.595Z,17.90
2018-03-03T12:57:17.836Z,17.70
2018-03-03T12:59:45.793Z,17.50
2018-03-03T13:02:17.063Z,17.20
2018-03-03T13:04:47.288Z,17.20
2018-03-03T13:07:18.155Z,17.10
2018-03-03T13:09:46.300Z,17.30
2018-03-03T13:12:17.730Z,17.40
2018-03-03T13:14:47.791Z,17.30
2018-03-03T13:17:17.722Z,17.30
2018-03-03T13:19:56.714Z,17.30
2018-03-03T13:22:25.759Z,17.30
2018-03-03T13:24:55.246Z,17.20
2018-03-03T13:30:01.756Z,17.10
2018-03-03T13:32:34.143Z,17.10
2018-03-03T13:35:03.094Z,17.10
2018-03-03T13:37:31.876Z,17.00
2018-03-03T13:40:00.111Z,17.00
2018-03-03T13:42:28.284Z,17.10
2018-03-03T13:44:57.383Z,17.30
2018-03-03T13:47:25.047Z,17.30
2018-03-03T13:49:53.546Z,17.10
2018-03-03T13:52:21.577Z,17.10
2018-03-03T13:54:49.215Z,17.10
2018-03-03T13:57:19.836Z,17.30
2018-03-03T13:59:48.386Z,17.20
2018-03-03T14:02:17.391Z,17.30
2018-03-03T14:04:47.332Z,17.40
2018-03-03T14:07:15.341Z,17.40
2018-03-03T14:09:43.504Z,17.60
2018-03-03T14:12:11.249Z,17.60
2018-03-03T14:14:43.468Z,17.50
2018-03-03T14:17:10.606Z,17.50
2018-03-03T14:19:37.751Z,17.40
2018-03-03T14:22:04.917Z,17.40
2018-03-03T14:24:38.118Z,17.40
2018-03-03T14:27:11.853Z,17.40
2018-03-03T14:29:41.022Z,17.30
2018-03-03T14:32:11.127Z,17.20
2018-03-03T14:34:40.974Z,17.20
2018-03-03T14:37:09.064Z,17.30
2018-03-03T14:39:37.884Z,17.30
2018-03-03T14:42:05.037Z,17.20
2018-03-03T14:44:32.806Z,17.10
2018-03-03T14:47:00.828Z,16.90
2018-03-03T14:49:31.272Z,17.30
2018-03-03T14:51:58.437Z,17.30
2018-03-03T14:54:27.400Z,17.60
2018-03-03T14:56:55.278Z,17.90
2018-03-03T14:59:23.915Z,18.20
2018-03-03T15:01:52.921Z,18.20
2018-03-03T15:04:24.233Z,18.30
2018-03-03T15:06:53.037Z,18.30
2018-03-03T15:09:22.688Z,18.30
2018-03-03T15:11:51.894Z,18.30
2018-03-03T15:14:21.684Z,18.30
2018-03-03T15:16:50.209Z,18.20
2018-03-03T15:19:23.244Z,18.20
2018-03-03T15:21:52.907Z,18.30
2018-03-03T15:24:25.442Z,18.30
2018-03-03T15:26:54.345Z,18.30
2018-03-03T15:29:22.999Z,18.20
2018-03-03T15:31:52.870Z,18.10
2018-03-03T15:34:29.135Z,18.20
2018-03-03T15:36:59.029Z,18.30
2018-03-03T15:39:27.890Z,18.30
2018-03-03T15:41:55.555Z,18.30
2018-03-03T15:44:23.194Z,18.00
2018-03-03T15:46:54.944Z,17.60
2018-03-03T15:49:22.550Z,17.40
2018-03-03T15:51:54.788Z,17.40
2018-03-03T15:54:23.037Z,17.40
2018-03-03T15:56:50.658Z,17.30
2018-03-03T15:59:18.365Z,17.30
2018-03-03T16:01:45.972Z,17.20
2018-03-03T16:04:13.650Z,17.20
2018-03-03T16:06:41.393Z,17.10
2018-03-03T16:09:09.051Z,17.00
2018-03-03T16:11:38.200Z,16.90
2018-03-03T16:14:11.253Z,16.70
2018-03-03T16:16:41.331Z,16.70
2018-03-03T16:19:10.684Z,16.60
2018-03-03T16:21:38.357Z,16.60
2018-03-03T16:24:05.980Z,16.50
2018-03-03T16:26:33.595Z,16.50
2018-03-03T16:29:01.251Z,16.40
2018-03-03T16:31:30.527Z,16.30
2018-03-03T16:33:58.125Z,16.30
2018-03-03T16:36:26.137Z,16.20
2018-03-03T16:38:54.499Z,16.20
2018-03-03T16:41:22.118Z,16.20
2018-03-03T16:43:49.739Z,16.20
2018-03-03T16:46:18.126Z,16.30
2018-03-03T16:48:47.608Z,16.40
2018-03-03T16:51:16.771Z,16.40
2018-03-03T16:53:44.724Z,16.20
2018-03-03T16:56:12.919Z,16.10
2018-03-03T16:58:45.056Z,16.10
2018-03-03T17:01:14.584Z,16.10
2018-03-03T17:03:41.753Z,16.10
2018-03-03T17:06:09.402Z,16.30
2018-03-03T17:08:40.022Z,16.30
2018-03-03T17:11:23.184Z,16.20
2018-03-03T17:13:50.982Z,16.10
2018-03-03T17:16:18.406Z,16.00
2018-03-03T17:18:45.614Z,16.00
2018-03-03T17:21:12.763Z,15.90
2018-03-03T17:23:40.391Z,15.90
2018-03-03T17:26:09.915Z,16.20
2018-03-03T17:28:43.637Z,16.30
2018-03-03T17:31:12.783Z,16.20
2018-03-03T17:33:40.396Z,16.20
2018-03-03T17:36:08.809Z,16.30
2018-03-03T17:38:36.430Z,16.30
2018-03-03T17:41:08.012Z,16.30
2018-03-03T17:43:35.624Z,16.20
2018-03-03T17:46:04.957Z,16.10
2018-03-03T17:48:33.548Z,16.20
2018-03-03T17:51:01.185Z,16.30
2018-03-03T17:53:30.084Z,16.20
2018-03-03T17:55:58.042Z,16.20
2018-03-03T17:58:25.675Z,16.20
2018-03-03T18:00:53.343Z,16.20
2018-03-03T18:03:20.965Z,16.00
2018-03-03T18:05:49.172Z,15.90
2018-03-03T18:08:16.816Z,15.90
2018-03-03T18:10:44.428Z,15.90
2018-03-03T18:13:12.045Z,15.80
2018-03-03T18:15:40.408Z,15.90
2018-03-03T18:18:09.190Z,15.90
2018-03-03T18:20:36.799Z,15.90
2018-03-03T18:23:05.269Z,15.90
2018-03-03T18:25:32.881Z,15.90
2018-03-03T18:28:00.943Z,15.80
2018-03-03T18:30:31.330Z,15.70
2018-03-03T18:32:59.177Z,15.70
2018-03-03T18:35:27.145Z,15.70
2018-03-03T18:37:54.818Z,15.60
2018-03-03T18:40:21.962Z,15.60
2018-03-03T18:42:49.512Z,15.50
2018-03-03T18:45:17.455Z,15.60
2018-03-03T18:47:48.702Z,15.50
2018-03-03T18:50:16.531Z,15.80
2018-03-03T18:55:19.605Z,15.90
2018-03-03T18:57:47.712Z,15.90
2018-03-03T19:00:16.581Z,15.90
2018-03-03T19:02:44.461Z,15.90
2018-03-03T19:05:11.648Z,15.90
2018-03-03T19:07:39.852Z,15.90
2018-03-03T19:10:07.803Z,15.90
2018-03-03T19:12:35.026Z,15.90
2018-03-03T19:15:06.227Z,15.90
2018-03-03T19:17:35.974Z,15.90
2018-03-03T19:20:03.173Z,15.80
2018-03-03T19:22:34.301Z,15.90
2018-03-03T19:25:01.495Z,15.90
2018-03-03T19:27:32.663Z,15.90
2018-03-03T19:30:00.449Z,16.00
2018-03-03T19:32:27.909Z,15.90
2018-03-03T19:34:55.583Z,16.00
2018-03-03T19:37:24.107Z,16.00
2018-03-03T19:39:52.012Z,16.20
2018-03-03T19:42:20.337Z,16.40
2018-03-03T19:44:49.512Z,16.50
2018-03-03T19:47:16.766Z,16.60
2018-03-03T19:49:46.136Z,16.80
2018-03-03T19:52:13.661Z,17.00
2018-03-03T19:54:42.317Z,16.80
2018-03-03T19:57:09.941Z,16.80
2018-03-03T19:59:41.295Z,16.60
2018-03-03T20:02:10.509Z,16.50
2018-03-03T20:04:38.155Z,16.40
2018-03-03T20:07:10.661Z,16.50
2018-03-03T20:09:39.163Z,16.50
2018-03-03T20:12:06.774Z,16.70
2018-03-03T20:14:34.431Z,16.90
2018-03-03T20:17:03.633Z,16.80
2018-03-03T20:19:32.040Z,16.60
2018-03-03T20:22:01.312Z,16.60
2018-03-03T20:24:35.318Z,16.40
2018-03-03T20:27:04.369Z,16.40
2018-03-03T20:29:33.067Z,16.40
2018-03-03T20:32:02.385Z,16.60
2018-03-03T20:34:31.421Z,16.90
2018-03-03T20:37:00.956Z,17.00
2018-03-03T20:39:28.838Z,16.90
2018-03-03T20:41:58.793Z,17.00
2018-03-03T20:44:27.417Z,17.80
2018-03-03T20:46:56.658Z,17.80
2018-03-03T20:49:27.395Z,18.00
2018-03-03T20:51:56.958Z,18.10
2018-03-03T20:54:24.812Z,18.20
2018-03-03T20:56:54.248Z,18.30
2018-03-03T20:59:26.653Z,18.40
2018-03-03T21:02:00.936Z,18.50
2018-03-03T21:04:30.033Z,18.60
2018-03-03T21:06:58.894Z,18.60
2018-03-03T21:09:35.101Z,18.80
2018-03-03T21:15:08.240Z,18.80
2018-03-03T21:17:37.011Z,18.80
2018-03-03T21:20:07.280Z,18.80
2018-03-03T21:22:35.835Z,18.80
2018-03-03T21:25:04.244Z,18.80
2018-03-03T21:27:32.972Z,18.80
2018-03-03T21:30:02.206Z,18.80
2018-03-03T21:32:33.188Z,18.70
2018-03-03T21:35:02.472Z,18.70
2018-03-03T21:37:30.440Z,18.70
2018-03-03T21:39:58.918Z,18.70
2018-03-03T21:42:35.946Z,18.70
2018-03-03T21:45:05.188Z,18.70
2018-03-03T21:47:32.343Z,18.70
2018-03-03T21:49:59.487Z,18.70
2018-03-03T21:52:27.020Z,18.70
2018-03-03T21:54:55.057Z,18.60
2018-03-03T21:59:56.785Z,18.60
2018-03-03T22:02:28.138Z,18.50
2018-03-03T22:04:58.252Z,18.40
2018-03-03T22:07:25.594Z,18.30
2018-03-03T22:09:53.067Z,18.20
2018-03-03T22:12:24.891Z,18.20
2018-03-03T22:14:57.130Z,18.20
2018-03-03T22:17:24.771Z,18.10
2018-03-03T22:19:56.958Z,18.10
2018-03-03T22:22:25.859Z,18.00
2018-03-03T22:24:55.176Z,17.90
2018-03-03T22:27:22.484Z,17.80
2018-03-03T22:29:50.277Z,17.90
2018-03-03T22:32:18.687Z,17.80
2018-03-03T22:34:46.995Z,17.80
2018-03-03T22:37:15.948Z,17.80
2018-03-03T22:39:44.892Z,17.80
2018-03-03T22:42:14.523Z,17.80
2018-03-03T22:44:51.449Z,17.80
2018-03-03T22:47:20.473Z,17.70
2018-03-03T22:49:51.436Z,17.80
2018-03-03T22:52:20.341Z,17.90
2018-03-03T22:54:48.898Z,17.90
2018-03-03T22:57:19.468Z,17.90
2018-03-03T22:59:51.601Z,17.90
2018-03-03T23:02:19.747Z,17.80
2018-03-03T23:04:47.357Z,17.80
2018-03-03T23:07:15.348Z,17.80
2018-03-03T23:09:45.852Z,17.80
2018-03-03T23:12:19.713Z,17.80
2018-03-03T23:14:55.013Z,17.90
2018-03-03T23:17:24.538Z,17.80
2018-03-03T23:19:54.882Z,17.80
2018-03-03T23:22:24.383Z,17.80
2018-03-03T23:24:53.175Z,17.90
2018-03-03T23:27:25.581Z,17.90
2018-03-03T23:29:55.099Z,17.80
2018-03-03T23:32:27.712Z,17.80
2018-03-03T23:34:56.525Z,17.80
2018-03-03T23:37:29.594Z,17.80
2018-03-03T23:39:57.935Z,17.70
2018-03-03T23:42:27.126Z,17.70
2018-03-03T23:44:56.555Z,17.70
2018-03-03T23:47:25.423Z,17.70
2018-03-03T23:49:54.270Z,17.70
2018-03-03T23:52:23.885Z,17.80
2018-03-03T23:54:52.037Z,17.80
2018-03-03T23:57:21.254Z,17.70
2018-03-03T23:59:49.921Z,17.80
